sensor_id;sensor_type;location;lat;lon;timestamp;temperature;humidity
7212;DHT22;3647;48.792;9.802;2023-03-01T05:45:18;0.10;99.90
7212;DHT22;3647;48.792;9.802;2023-03-01T05:47:46;0.10;99.90
7212;DHT22;3647;48.792;9.802;2023-03-01T05:50:15;0.20;99.90
7212;DHT22;3647;48.792;9.802;2023-03-01T05:52:45;0.20;99.90
7212;DHT22;3647;48.792;9.802;2023-03-01T05:55:12;0.10;99.90
7212;DHT22;3647;48.792;9.802;2023-03-01T05:57:39;0.10;99.90
7212;DHT22;3647;48.792;9.802;2023-03-01T06:00:10;0.10;99.90
7212;DHT22;3647;48.792;9.802;2023-03-01T06:02:39;0.10;99.90
7212;DHT22;3647;48.792;9.802;2023-03-01T06:05:06;0.00;99.90
7212;DHT22;3647;48.792;9.802;2023-03-01T06:07:34;0.00;99.90
7212;DHT22;3647;48.792;9.802;2023-03-01T06:10:01;0.00;99.90
7212;DHT22;3647;48.792;9.802;2023-03-01T06:12:30;-0.10;99.90
7212;DHT22;3647;48.792;9.802;2023-03-01T06:14:57;-0.10;99.90
7212;DHT22;3647;48.792;9.802;2023-03-01T06:17:24;-0.10;99.90
7212;DHT22;3647;48.792;9.802;2023-03-01T06:19:52;-0.10;99.90
7212;DHT22;3647;48.792;9.802;2023-03-01T06:58:41;-0.20;99.90
7212;DHT22;3647;48.792;9.802;2023-03-01T07:01:09;-0.10;99.90
7212;DHT22;3647;48.792;9.802;2023-03-01T07:03:35;-0.10;99.90
7212;DHT22;3647;48.792;9.802;2023-03-01T07:06:02;-0.10;99.90
7212;DHT22;3647;48.792;9.802;2023-03-01T07:08:29;-0.10;99.90
7212;DHT22;3647;48.792;9.802;2023-03-01T07:10:56;-0.10;99.90
7212;DHT22;3647;48.792;9.802;2023-03-01T07:13:23;-0.20;99.90
7212;DHT22;3647;48.792;9.802;2023-03-01T07:15:51;-0.10;99.90
7212;DHT22;3647;48.792;9.802;2023-03-01T07:18:18;-0.10;99.90
7212;DHT22;3647;48.792;9.802;2023-03-01T07:20:45;0.10;99.90
7212;DHT22;3647;48.792;9.802;2023-03-01T07:23:12;0.10;99.90
7212;DHT22;3647;48.792;9.802;2023-03-01T07:25:38;0.10;99.90
7212;DHT22;3647;48.792;9.802;2023-03-01T07:28:05;0.10;99.90
7212;DHT22;3647;48.792;9.802;2023-03-01T07:30:32;0.30;99.90
7212;DHT22;3647;48.792;9.802;2023-03-01T07:33:00;0.30;99.90
7212;DHT22;3647;48.792;9.802;2023-03-01T07:35:27;0.30;99.90
7212;DHT22;3647;48.792;9.802;2023-03-01T07:37:54;0.20;99.90
7212;DHT22;3647;48.792;9.802;2023-03-01T07:40:21;0.20;99.90
7212;DHT22;3647;48.792;9.802;2023-03-01T07:42:48;0.30;99.90
7212;DHT22;3647;48.792;9.802;2023-03-01T07:45:14;0.40;99.90
7212;DHT22;3647;48.792;9.802;2023-03-01T07:47:41;0.40;99.90
7212;DHT22;3647;48.792;9.802;2023-03-01T07:50:10;0.70;99.90
7212;DHT22;3647;48.792;9.802;2023-03-01T07:52:38;0.60;99.90
7212;DHT22;3647;48.792;9.802;2023-03-01T07:55:06;0.60;99.90
7212;DHT22;3647;48.792;9.802;2023-03-01T07:57:33;0.60;99.90
7212;DHT22;3647;48.792;9.802;2023-03-01T08:00:00;0.60;99.90
7212;DHT22;3647;48.792;9.802;2023-03-01T08:02:26;1.20;99.90
7212;DHT22;3647;48.792;9.802;2023-03-01T08:04:53;0.50;99.90
7212;DHT22;3647;48.792;9.802;2023-03-01T08:07:21;0.50;99.90
7212;DHT22;3647;48.792;9.802;2023-03-01T08:09:48;0.60;99.90
7212;DHT22;3647;48.792;9.802;2023-03-01T08:12:15;0.60;99.90
7212;DHT22;3647;48.792;9.802;2023-03-01T08:14:42;1.00;99.90
7212;DHT22;3647;48.792;9.802;2023-03-01T08:17:09;0.70;99.90
7212;DHT22;3647;48.792;9.802;2023-03-01T08:19:36;0.80;99.90
7212;DHT22;3647;48.792;9.802;2023-03-01T08:22:02;0.80;99.90
7212;DHT22;3647;48.792;9.802;2023-03-01T08:24:31;0.90;99.90
7212;DHT22;3647;48.792;9.802;2023-03-01T08:26:57;1.00;99.90
7212;DHT22;3647;48.792;9.802;2023-03-01T08:31:51;0.90;99.90
7212;DHT22;3647;48.792;9.802;2023-03-01T08:34:18;1.10;99.90
7212;DHT22;3647;48.792;9.802;2023-03-01T08:36:46;1.00;99.90
7212;DHT22;3647;48.792;9.802;2023-03-01T08:39:14;1.10;99.90
7212;DHT22;3647;48.792;9.802;2023-03-01T08:41:43;1.20;99.90
7212;DHT22;3647;48.792;9.802;2023-03-01T08:44:11;1.30;99.90
7212;DHT22;3647;48.792;9.802;2023-03-01T08:46:40;1.30;99.90
7212;DHT22;3647;48.792;9.802;2023-03-01T08:49:07;1.50;99.90
7212;DHT22;3647;48.792;9.802;2023-03-01T08:51:35;1.60;99.90
7212;DHT22;3647;48.792;9.802;2023-03-01T08:54:03;1.70;99.90
7212;DHT22;3647;48.792;9.802;2023-03-01T08:56:30;1.80;99.90
7212;DHT22;3647;48.792;9.802;2023-03-01T08:58:59;1.70;99.90
7212;DHT22;3647;48.792;9.802;2023-03-01T09:01:26;1.80;99.90
7212;DHT22;3647;48.792;9.802;2023-03-01T09:03:53;1.90;99.90
7212;DHT22;3647;48.792;9.802;2023-03-01T09:06:19;2.00;99.90
7212;DHT22;3647;48.792;9.802;2023-03-01T09:08:48;2.20;99.90
7212;DHT22;3647;48.792;9.802;2023-03-01T09:11:17;2.10;99.90
7212;DHT22;3647;48.792;9.802;2023-03-01T09:13:45;2.20;99.90
7212;DHT22;3647;48.792;9.802;2023-03-01T09:16:14;2.20;99.90
7212;DHT22;3647;48.792;9.802;2023-03-01T09:18:42;2.30;99.90
7212;DHT22;3647;48.792;9.802;2023-03-01T09:21:11;2.40;99.90
7212;DHT22;3647;48.792;9.802;2023-03-01T09:23:39;2.50;99.90
7212;DHT22;3647;48.792;9.802;2023-03-01T09:26:07;2.70;99.90
7212;DHT22;3647;48.792;9.802;2023-03-01T09:28:35;2.80;99.90
7212;DHT22;3647;48.792;9.802;2023-03-01T09:31:02;3.10;99.90
7212;DHT22;3647;48.792;9.802;2023-03-01T09:33:31;3.70;99.90
7212;DHT22;3647;48.792;9.802;2023-03-01T09:35:58;3.30;99.90
7212;DHT22;3647;48.792;9.802;2023-03-01T09:38:25;3.30;99.90
7212;DHT22;3647;48.792;9.802;2023-03-01T09:40:52;3.40;99.90
7212;DHT22;3647;48.792;9.802;2023-03-01T09:43:23;3.50;99.90
7212;DHT22;3647;48.792;9.802;2023-03-01T09:45:54;3.70;99.90
7212;DHT22;3647;48.792;9.802;2023-03-01T09:48:23;5.00;99.90
7212;DHT22;3647;48.792;9.802;2023-03-01T09:50:53;3.70;99.90
7212;DHT22;3647;48.792;9.802;2023-03-01T09:53:21;3.90;99.90
7212;DHT22;3647;48.792;9.802;2023-03-01T09:55:52;3.80;99.90
7212;DHT22;3647;48.792;9.802;2023-03-01T09:58:40;3.90;99.90
7212;DHT22;3647;48.792;9.802;2023-03-01T10:01:23;3.90;99.90
7212;DHT22;3647;48.792;9.802;2023-03-01T10:04:05;3.90;99.90
7212;DHT22;3647;48.792;9.802;2023-03-01T10:06:43;3.90;99.90
7212;DHT22;3647;48.792;9.802;2023-03-01T10:09:13;4.00;99.90
7212;DHT22;3647;48.792;9.802;2023-03-01T10:11:43;4.20;99.90
7212;DHT22;3647;48.792;9.802;2023-03-01T10:14:18;4.10;99.90
7212;DHT22;3647;48.792;9.802;2023-03-01T10:16:52;4.20;99.90
7212;DHT22;3647;48.792;9.802;2023-03-01T10:19:27;4.30;99.90
7212;DHT22;3647;48.792;9.802;2023-03-01T10:22:00;4.20;99.90
7212;DHT22;3647;48.792;9.802;2023-03-01T10:24:32;4.30;99.90
7212;DHT22;3647;48.792;9.802;2023-03-01T10:27:05;4.20;99.90
7212;DHT22;3647;48.792;9.802;2023-03-01T10:29:39;4.30;99.90
7212;DHT22;3647;48.792;9.802;2023-03-01T10:32:08;4.40;99.90
7212;DHT22;3647;48.792;9.802;2023-03-01T10:34:37;4.30;99.90
7212;DHT22;3647;48.792;9.802;2023-03-01T10:37:12;4.50;99.90
7212;DHT22;3647;48.792;9.802;2023-03-01T10:39:55;5.40;99.90
7212;DHT22;3647;48.792;9.802;2023-03-01T10:42:27;4.60;99.90
7212;DHT22;3647;48.792;9.802;2023-03-01T10:44:54;4.70;99.90
7212;DHT22;3647;48.792;9.802;2023-03-01T10:47:23;4.60;99.90
7212;DHT22;3647;48.792;9.802;2023-03-01T10:49:56;4.50;99.90
7212;DHT22;3647;48.792;9.802;2023-03-01T10:52:29;4.70;99.90
7212;DHT22;3647;48.792;9.802;2023-03-01T10:54:58;5.00;99.90
7212;DHT22;3647;48.792;9.802;2023-03-01T10:57:31;4.70;99.90
7212;DHT22;3647;48.792;9.802;2023-03-01T11:03:09;5.00;99.90
7212;DHT22;3647;48.792;9.802;2023-03-01T11:05:37;5.40;99.90
7212;DHT22;3647;48.792;9.802;2023-03-01T11:08:29;5.10;99.90
7212;DHT22;3647;48.792;9.802;2023-03-01T11:11:16;5.20;99.90
7212;DHT22;3647;48.792;9.802;2023-03-01T11:13:52;5.20;99.90
7212;DHT22;3647;48.792;9.802;2023-03-01T11:16:25;6.50;99.90
7212;DHT22;3647;48.792;9.802;2023-03-01T11:18:57;5.40;99.90
7212;DHT22;3647;48.792;9.802;2023-03-01T11:21:25;5.60;99.90
7212;DHT22;3647;48.792;9.802;2023-03-01T11:23:54;5.90;99.90
7212;DHT22;3647;48.792;9.802;2023-03-01T11:26:21;5.60;99.90
7212;DHT22;3647;48.792;9.802;2023-03-01T11:28:51;5.40;99.90
7212;DHT22;3647;48.792;9.802;2023-03-01T11:31:21;5.40;99.90
7212;DHT22;3647;48.792;9.802;2023-03-01T11:33:54;5.40;99.90
7212;DHT22;3647;48.792;9.802;2023-03-01T11:36:28;5.60;99.90
7212;DHT22;3647;48.792;9.802;2023-03-01T11:39:03;5.50;99.90
7212;DHT22;3647;48.792;9.802;2023-03-01T11:41:32;5.70;99.90
7212;DHT22;3647;48.792;9.802;2023-03-01T11:44:02;6.10;99.90
7212;DHT22;3647;48.792;9.802;2023-03-01T11:46:47;5.90;99.90
7212;DHT22;3647;48.792;9.802;2023-03-01T11:52:33;6.20;99.90
7212;DHT22;3647;48.792;9.802;2023-03-01T11:55:18;8.70;99.90
7212;DHT22;3647;48.792;9.802;2023-03-01T11:57:58;6.50;99.90
7212;DHT22;3647;48.792;9.802;2023-03-01T12:00:43;6.60;99.90
7212;DHT22;3647;48.792;9.802;2023-03-01T12:03:27;6.50;99.90
7212;DHT22;3647;48.792;9.802;2023-03-01T12:06:17;6.50;99.90
7212;DHT22;3647;48.792;9.802;2023-03-01T12:08:59;6.40;99.90
7212;DHT22;3647;48.792;9.802;2023-03-01T12:11:39;6.60;99.90
7212;DHT22;3647;48.792;9.802;2023-03-01T12:14:29;6.50;99.90
7212;DHT22;3647;48.792;9.802;2023-03-01T12:17:12;6.50;99.90
7212;DHT22;3647;48.792;9.802;2023-03-01T12:20:02;6.50;99.90
7212;DHT22;3647;48.792;9.802;2023-03-01T12:22:40;6.60;99.90
7212;DHT22;3647;48.792;9.802;2023-03-01T12:25:19;6.70;99.90
7212;DHT22;3647;48.792;9.802;2023-03-01T12:30:56;6.80;99.90
7212;DHT22;3647;48.792;9.802;2023-03-01T12:33:36;6.90;99.90
7212;DHT22;3647;48.792;9.802;2023-03-01T12:36:26;7.20;99.90
7212;DHT22;3647;48.792;9.802;2023-03-01T12:39:07;7.20;99.90
7212;DHT22;3647;48.792;9.802;2023-03-01T12:41:43;7.00;99.90
7212;DHT22;3647;48.792;9.802;2023-03-01T12:44:28;6.70;99.90
7212;DHT22;3647;48.792;9.802;2023-03-01T12:47:07;6.60;99.90
7212;DHT22;3647;48.792;9.802;2023-03-01T12:49:40;6.90;99.90
7212;DHT22;3647;48.792;9.802;2023-03-01T12:52:11;7.70;99.90
7212;DHT22;3647;48.792;9.802;2023-03-01T12:54:41;6.70;99.90
7212;DHT22;3647;48.792;9.802;2023-03-01T12:57:14;7.10;99.90
7212;DHT22;3647;48.792;9.802;2023-03-01T12:59:50;6.80;99.90
7212;DHT22;3647;48.792;9.802;2023-03-01T13:02:24;7.00;99.90
7212;DHT22;3647;48.792;9.802;2023-03-01T13:05:06;7.00;99.90
7212;DHT22;3647;48.792;9.802;2023-03-01T13:07:36;7.40;99.90
7212;DHT22;3647;48.792;9.802;2023-03-01T13:10:21;7.30;99.90
7212;DHT22;3647;48.792;9.802;2023-03-01T13:13:01;7.30;99.90
7212;DHT22;3647;48.792;9.802;2023-03-01T13:15:32;7.50;99.90
7212;DHT22;3647;48.792;9.802;2023-03-01T13:18:00;7.10;99.90
7212;DHT22;3647;48.792;9.802;2023-03-01T13:20:31;8.10;99.90
7212;DHT22;3647;48.792;9.802;2023-03-01T13:23:07;8.50;99.90
7212;DHT22;3647;48.792;9.802;2023-03-01T13:26:09;7.00;99.90
7212;DHT22;3647;48.792;9.802;2023-03-01T13:28:48;6.90;99.90
7212;DHT22;3647;48.792;9.802;2023-03-01T13:34:59;7.30;99.90
7212;DHT22;3647;48.792;9.802;2023-03-01T13:37:28;7.50;99.90
7212;DHT22;3647;48.792;9.802;2023-03-01T13:39:58;7.60;99.90
7212;DHT22;3647;48.792;9.802;2023-03-01T13:42:38;7.50;99.90
7212;DHT22;3647;48.792;9.802;2023-03-01T13:45:17;7.30;99.90
7212;DHT22;3647;48.792;9.802;2023-03-01T13:47:45;7.30;99.90
7212;DHT22;3647;48.792;9.802;2023-03-01T13:50:19;7.70;99.90
7212;DHT22;3647;48.792;9.802;2023-03-01T13:52:50;7.00;99.90
7212;DHT22;3647;48.792;9.802;2023-03-01T13:55:21;7.20;99.90
7212;DHT22;3647;48.792;9.802;2023-03-01T13:57:53;7.20;99.90
7212;DHT22;3647;48.792;9.802;2023-03-01T14:00:26;7.10;99.90
7212;DHT22;3647;48.792;9.802;2023-03-01T14:03:05;7.30;99.90
7212;DHT22;3647;48.792;9.802;2023-03-01T14:05:34;7.40;99.90
7212;DHT22;3647;48.792;9.802;2023-03-01T14:08:01;7.50;99.90
7212;DHT22;3647;48.792;9.802;2023-03-01T14:10:35;9.50;99.90
7212;DHT22;3647;48.792;9.802;2023-03-01T14:13:14;7.50;99.90
7212;DHT22;3647;48.792;9.802;2023-03-01T14:15:50;7.30;99.90
7212;DHT22;3647;48.792;9.802;2023-03-01T14:18:25;8.30;99.90
7212;DHT22;3647;48.792;9.802;2023-03-01T14:20:57;7.30;99.90
7212;DHT22;3647;48.792;9.802;2023-03-01T14:23:25;8.50;99.90
7212;DHT22;3647;48.792;9.802;2023-03-01T14:25:55;10.30;99.90
7212;DHT22;3647;48.792;9.802;2023-03-01T14:28:24;7.30;99.90
7212;DHT22;3647;48.792;9.802;2023-03-01T14:30:52;7.40;99.90
7212;DHT22;3647;48.792;9.802;2023-03-01T14:33:22;7.30;99.90
7212;DHT22;3647;48.792;9.802;2023-03-01T14:35:55;7.50;99.90
7212;DHT22;3647;48.792;9.802;2023-03-01T14:38:29;7.60;99.90
7212;DHT22;3647;48.792;9.802;2023-03-01T14:41:00;7.60;99.90
7212;DHT22;3647;48.792;9.802;2023-03-01T14:43:29;7.50;99.90
7212;DHT22;3647;48.792;9.802;2023-03-01T14:45:56;7.60;99.90
7212;DHT22;3647;48.792;9.802;2023-03-01T14:48:23;7.60;99.90
7212;DHT22;3647;48.792;9.802;2023-03-01T14:50:51;7.60;99.90
7212;DHT22;3647;48.792;9.802;2023-03-01T14:53:21;7.60;99.90
7212;DHT22;3647;48.792;9.802;2023-03-01T14:55:52;7.60;99.90
7212;DHT22;3647;48.792;9.802;2023-03-01T14:58:21;7.70;99.90
7212;DHT22;3647;48.792;9.802;2023-03-01T15:00:52;7.70;99.90
7212;DHT22;3647;48.792;9.802;2023-03-01T15:03:25;7.80;99.90
7212;DHT22;3647;48.792;9.802;2023-03-01T15:05:54;9.30;99.90
7212;DHT22;3647;48.792;9.802;2023-03-01T15:08:23;8.70;99.90
7212;DHT22;3647;48.792;9.802;2023-03-01T15:11:02;7.50;99.90
7212;DHT22;3647;48.792;9.802;2023-03-01T15:13:31;8.10;99.90
7212;DHT22;3647;48.792;9.802;2023-03-01T15:16:07;7.60;99.90
7212;DHT22;3647;48.792;9.802;2023-03-01T15:18:36;7.70;99.90
7212;DHT22;3647;48.792;9.802;2023-03-01T15:21:08;9.40;99.90
7212;DHT22;3647;48.792;9.802;2023-03-01T15:23:37;7.60;99.90
7212;DHT22;3647;48.792;9.802;2023-03-01T15:26:22;7.60;99.90
7212;DHT22;3647;48.792;9.802;2023-03-01T15:28:51;7.80;99.90
7212;DHT22;3647;48.792;9.802;2023-03-01T15:31:20;6.10;99.90
7212;DHT22;3647;48.792;9.802;2023-03-01T15:33:48;7.80;99.90
7212;DHT22;3647;48.792;9.802;2023-03-01T15:36:36;7.70;99.90
7212;DHT22;3647;48.792;9.802;2023-03-01T15:39:05;8.70;99.90
7212;DHT22;3647;48.792;9.802;2023-03-01T15:41:46;7.60;99.90
7212;DHT22;3647;48.792;9.802;2023-03-01T15:44:17;7.50;99.90
7212;DHT22;3647;48.792;9.802;2023-03-01T15:46:46;7.50;99.90
7212;DHT22;3647;48.792;9.802;2023-03-01T15:49:34;7.60;99.90
7212;DHT22;3647;48.792;9.802;2023-03-01T15:52:02;7.60;99.90
7212;DHT22;3647;48.792;9.802;2023-03-01T15:54:29;7.60;99.90
7212;DHT22;3647;48.792;9.802;2023-03-01T15:56:57;7.60;99.90
7212;DHT22;3647;48.792;9.802;2023-03-01T15:59:24;7.60;99.90
7212;DHT22;3647;48.792;9.802;2023-03-01T16:01:51;7.60;99.90
7212;DHT22;3647;48.792;9.802;2023-03-01T16:04:18;7.50;99.90
7212;DHT22;3647;48.792;9.802;2023-03-01T16:06:49;7.50;99.90
7212;DHT22;3647;48.792;9.802;2023-03-01T16:09:20;7.50;99.90
7212;DHT22;3647;48.792;9.802;2023-03-01T16:11:48;7.50;99.90
7212;DHT22;3647;48.792;9.802;2023-03-01T16:14:17;7.50;99.90
7212;DHT22;3647;48.792;9.802;2023-03-01T16:16:44;7.50;99.90
7212;DHT22;3647;48.792;9.802;2023-03-01T16:19:11;7.40;99.90
7212;DHT22;3647;48.792;9.802;2023-03-01T16:21:38;9.00;99.90
7212;DHT22;3647;48.792;9.802;2023-03-01T16:24:05;7.40;99.90
7212;DHT22;3647;48.792;9.802;2023-03-01T16:26:33;7.40;99.90
7212;DHT22;3647;48.792;9.802;2023-03-01T16:28:59;7.70;99.90
7212;DHT22;3647;48.792;9.802;2023-03-01T16:31:28;7.50;99.90
7212;DHT22;3647;48.792;9.802;2023-03-01T16:33:55;7.30;99.90
7212;DHT22;3647;48.792;9.802;2023-03-01T16:36:24;7.30;99.90
7212;DHT22;3647;48.792;9.802;2023-03-01T16:38:54;7.20;99.90
7212;DHT22;3647;48.792;9.802;2023-03-01T16:41:22;7.10;99.90
7212;DHT22;3647;48.792;9.802;2023-03-01T16:43:49;7.00;99.90
7212;DHT22;3647;48.792;9.802;2023-03-01T16:46:18;7.00;99.90
7212;DHT22;3647;48.792;9.802;2023-03-01T16:48:47;6.90;99.90
7212;DHT22;3647;48.792;9.802;2023-03-01T16:51:15;6.80;99.90
7212;DHT22;3647;48.792;9.802;2023-03-01T16:53:42;6.80;99.90
7212;DHT22;3647;48.792;9.802;2023-03-01T16:56:10;6.70;99.90
7212;DHT22;3647;48.792;9.802;2023-03-01T16:58:39;8.80;99.90
7212;DHT22;3647;48.792;9.802;2023-03-01T17:01:07;6.50;99.90
7212;DHT22;3647;48.792;9.802;2023-03-01T17:03:34;6.40;99.90
7212;DHT22;3647;48.792;9.802;2023-03-01T17:06:04;6.60;99.90
7212;DHT22;3647;48.792;9.802;2023-03-01T17:08:32;6.20;99.90
7212;DHT22;3647;48.792;9.802;2023-03-01T17:11:06;6.30;99.90
7212;DHT22;3647;48.792;9.802;2023-03-01T17:13:34;6.10;99.90
7212;DHT22;3647;48.792;9.802;2023-03-01T17:16:03;6.20;99.90
7212;DHT22;3647;48.792;9.802;2023-03-01T17:18:30;6.00;99.90
7212;DHT22;3647;48.792;9.802;2023-03-01T17:20:57;6.00;99.90
7212;DHT22;3647;48.792;9.802;2023-03-01T17:23:25;7.80;99.90
7212;DHT22;3647;48.792;9.802;2023-03-01T17:25:52;5.90;99.90
7212;DHT22;3647;48.792;9.802;2023-03-01T17:28:20;5.90;99.90
7212;DHT22;3647;48.792;9.802;2023-03-01T17:30:47;5.80;99.90
7212;DHT22;3647;48.792;9.802;2023-03-01T17:33:15;5.60;99.90
7212;DHT22;3647;48.792;9.802;2023-03-01T17:35:42;5.60;99.90
7212;DHT22;3647;48.792;9.802;2023-03-01T17:38:12;5.90;99.90
7212;DHT22;3647;48.792;9.802;2023-03-01T17:40:40;5.40;99.90
7212;DHT22;3647;48.792;9.802;2023-03-01T17:43:10;5.40;99.90
7212;DHT22;3647;48.792;9.802;2023-03-01T17:45:38;5.40;99.90
7212;DHT22;3647;48.792;9.802;2023-03-01T17:48:06;5.30;99.90
7212;DHT22;3647;48.792;9.802;2023-03-01T17:50:33;5.40;99.90
7212;DHT22;3647;48.792;9.802;2023-03-01T17:53:02;5.50;99.90
7212;DHT22;3647;48.792;9.802;2023-03-01T17:55:33;5.30;99.90
7212;DHT22;3647;48.792;9.802;2023-03-01T17:58:02;5.20;99.90
7212;DHT22;3647;48.792;9.802;2023-03-01T18:00:29;7.60;99.90
7212;DHT22;3647;48.792;9.802;2023-03-01T18:02:55;5.10;99.90
7212;DHT22;3647;48.792;9.802;2023-03-01T18:05:22;4.90;99.90
7212;DHT22;3647;48.792;9.802;2023-03-01T18:07:49;6.60;99.90
7212;DHT22;3647;48.792;9.802;2023-03-01T18:10:17;4.80;99.90
7212;DHT22;3647;48.792;9.802;2023-03-01T18:12:43;4.70;99.90
7212;DHT22;3647;48.792;9.802;2023-03-01T18:15:12;4.50;99.90
7212;DHT22;3647;48.792;9.802;2023-03-01T18:17:39;4.40;99.90
7212;DHT22;3647;48.792;9.802;2023-03-01T18:20:07;4.40;99.90
7212;DHT22;3647;48.792;9.802;2023-03-01T18:22:34;4.40;99.90
7212;DHT22;3647;48.792;9.802;2023-03-01T18:25:02;4.40;99.90
7212;DHT22;3647;48.792;9.802;2023-03-01T18:27:29;4.30;99.90
7212;DHT22;3647;48.792;9.802;2023-03-01T18:29:56;4.20;99.90
7212;DHT22;3647;48.792;9.802;2023-03-01T18:32:24;4.10;99.90
7212;DHT22;3647;48.792;9.802;2023-03-01T18:34:52;5.30;99.90
7212;DHT22;3647;48.792;9.802;2023-03-01T18:37:19;4.00;99.90
7212;DHT22;3647;48.792;9.802;2023-03-01T18:39:49;4.00;99.90
7212;DHT22;3647;48.792;9.802;2023-03-01T18:42:15;5.50;99.90
7212;DHT22;3647;48.792;9.802;2023-03-01T18:44:44;3.90;99.90
7212;DHT22;3647;48.792;9.802;2023-03-01T18:47:11;4.00;99.90
7212;DHT22;3647;48.792;9.802;2023-03-01T18:49:40;4.00;99.90
7212;DHT22;3647;48.792;9.802;2023-03-01T18:52:07;3.90;99.90
7212;DHT22;3647;48.792;9.802;2023-03-01T18:54:33;4.10;99.90
7212;DHT22;3647;48.792;9.802;2023-03-01T18:57:00;5.70;99.90
7212;DHT22;3647;48.792;9.802;2023-03-01T18:59:28;5.30;99.90
7212;DHT22;3647;48.792;9.802;2023-03-01T19:01:56;3.60;99.90
7212;DHT22;3647;48.792;9.802;2023-03-01T19:04:23;3.60;99.90
7212;DHT22;3647;48.792;9.802;2023-03-01T19:06:52;3.80;99.90
7212;DHT22;3647;48.792;9.802;2023-03-01T19:09:19;5.20;99.90
7212;DHT22;3647;48.792;9.802;2023-03-01T19:11:46;3.80;99.90
7212;DHT22;3647;48.792;9.802;2023-03-01T19:14:13;3.70;99.90
7212;DHT22;3647;48.792;9.802;2023-03-01T19:16:40;3.60;99.90
7212;DHT22;3647;48.792;9.802;2023-03-01T19:19:07;3.50;99.90
7212;DHT22;3647;48.792;9.802;2023-03-01T19:21:34;4.60;99.90
7212;DHT22;3647;48.792;9.802;2023-03-01T19:24:03;3.40;99.90
7212;DHT22;3647;48.792;9.802;2023-03-01T19:26:30;3.40;99.90
7212;DHT22;3647;48.792;9.802;2023-03-01T19:28:58;3.70;99.90
7212;DHT22;3647;48.792;9.802;2023-03-01T19:31:26;3.30;99.90
7212;DHT22;3647;48.792;9.802;2023-03-01T19:33:54;3.10;99.90
7212;DHT22;3647;48.792;9.802;2023-03-01T19:36:22;3.10;99.90
7212;DHT22;3647;48.792;9.802;2023-03-01T19:38:58;3.00;99.90
7212;DHT22;3647;48.792;9.802;2023-03-01T19:41:27;3.00;99.90
7212;DHT22;3647;48.792;9.802;2023-03-01T19:43:54;2.80;99.90
7212;DHT22;3647;48.792;9.802;2023-03-01T19:46:22;2.70;99.90
7212;DHT22;3647;48.792;9.802;2023-03-01T19:48:50;4.10;99.90
7212;DHT22;3647;48.792;9.802;2023-03-01T19:51:17;2.60;99.90
7212;DHT22;3647;48.792;9.802;2023-03-01T19:53:44;4.50;99.90
7212;DHT22;3647;48.792;9.802;2023-03-01T19:56:12;2.60;99.90
7212;DHT22;3647;48.792;9.802;2023-03-01T19:58:40;2.60;99.90
7212;DHT22;3647;48.792;9.802;2023-03-01T20:01:14;2.60;99.90
7212;DHT22;3647;48.792;9.802;2023-03-01T20:03:41;2.70;99.90
7212;DHT22;3647;48.792;9.802;2023-03-01T20:06:09;2.70;99.90
7212;DHT22;3647;48.792;9.802;2023-03-01T20:08:37;2.80;99.90
7212;DHT22;3647;48.792;9.802;2023-03-01T20:11:05;2.80;99.90
7212;DHT22;3647;48.792;9.802;2023-03-01T20:13:32;2.80;99.90
7212;DHT22;3647;48.792;9.802;2023-03-01T20:16:01;2.80;99.90
7212;DHT22;3647;48.792;9.802;2023-03-01T20:18:28;2.90;99.90
7212;DHT22;3647;48.792;9.802;2023-03-01T20:20:55;2.90;99.90
7212;DHT22;3647;48.792;9.802;2023-03-01T20:23:22;3.00;99.90
7212;DHT22;3647;48.792;9.802;2023-03-01T20:25:48;3.00;99.90
7212;DHT22;3647;48.792;9.802;2023-03-01T20:28:17;4.00;99.90
7212;DHT22;3647;48.792;9.802;2023-03-01T20:30:44;3.10;99.90
7212;DHT22;3647;48.792;9.802;2023-03-01T20:33:12;3.10;99.90
7212;DHT22;3647;48.792;9.802;2023-03-01T20:35:42;3.20;99.90
7212;DHT22;3647;48.792;9.802;2023-03-01T20:38:09;3.20;99.90
7212;DHT22;3647;48.792;9.802;2023-03-01T20:40:36;3.20;99.90
7212;DHT22;3647;48.792;9.802;2023-03-01T20:43:03;3.30;99.90
7212;DHT22;3647;48.792;9.802;2023-03-01T20:45:30;3.30;99.90
7212;DHT22;3647;48.792;9.802;2023-03-01T20:47:57;3.30;99.90
7212;DHT22;3647;48.792;9.802;2023-03-01T20:50:25;3.90;99.90
7212;DHT22;3647;48.792;9.802;2023-03-01T20:52:51;3.30;99.90
7212;DHT22;3647;48.792;9.802;2023-03-01T20:55:18;3.30;99.90
7212;DHT22;3647;48.792;9.802;2023-03-01T20:57:45;4.70;99.90
7212;DHT22;3647;48.792;9.802;2023-03-01T21:00:12;4.40;99.90
7212;DHT22;3647;48.792;9.802;2023-03-01T21:02:39;3.40;99.90
7212;DHT22;3647;48.792;9.802;2023-03-01T21:05:06;3.40;99.90
7212;DHT22;3647;48.792;9.802;2023-03-01T21:07:34;3.40;99.90
7212;DHT22;3647;48.792;9.802;2023-03-01T21:10:01;4.00;99.90
7212;DHT22;3647;48.792;9.802;2023-03-01T21:12:29;3.50;99.90
7212;DHT22;3647;48.792;9.802;2023-03-01T21:14:56;4.40;99.90
7212;DHT22;3647;48.792;9.802;2023-03-01T21:17:23;5.20;99.90
7212;DHT22;3647;48.792;9.802;2023-03-01T21:19:49;3.30;99.90
7212;DHT22;3647;48.792;9.802;2023-03-01T21:22:16;3.30;99.90
7212;DHT22;3647;48.792;9.802;2023-03-01T21:24:45;3.30;99.90
7212;DHT22;3647;48.792;9.802;2023-03-01T21:27:13;3.20;99.90
7212;DHT22;3647;48.792;9.802;2023-03-01T21:29:43;4.90;99.90
7212;DHT22;3647;48.792;9.802;2023-03-01T21:32:11;3.20;99.90
7212;DHT22;3647;48.792;9.802;2023-03-01T21:34:39;3.20;99.90
7212;DHT22;3647;48.792;9.802;2023-03-01T21:37:07;3.10;99.90
7212;DHT22;3647;48.792;9.802;2023-03-01T21:39:35;3.10;99.90
7212;DHT22;3647;48.792;9.802;2023-03-01T21:42:04;3.10;99.90
7212;DHT22;3647;48.792;9.802;2023-03-01T21:44:32;3.10;99.90
7212;DHT22;3647;48.792;9.802;2023-03-01T21:46:59;3.00;99.90
7212;DHT22;3647;48.792;9.802;2023-03-01T21:49:26;5.30;99.90
7212;DHT22;3647;48.792;9.802;2023-03-01T21:51:53;3.10;99.90
7212;DHT22;3647;48.792;9.802;2023-03-01T21:54:20;3.10;99.90
7212;DHT22;3647;48.792;9.802;2023-03-01T21:56:47;3.00;99.90
